sensor_id;sensor_type;location;lat;lon;timestamp;temperature;humidity
15483;DHT22;7843;50.330;7.312;2022-07-06T00:00:48;16.50;83.80
15483;DHT22;7843;50.330;7.312;2022-07-06T00:03:15;16.40;83.90
15483;DHT22;7843;50.330;7.312;2022-07-06T00:05:42;16.30;84.20
15483;DHT22;7843;50.330;7.312;2022-07-06T00:08:08;16.20;83.80
15483;DHT22;7843;50.330;7.312;2022-07-06T00:10:35;16.20;84.10
15483;DHT22;7843;50.330;7.312;2022-07-06T00:13:02;16.20;84.20
15483;DHT22;7843;50.330;7.312;2022-07-06T00:15:29;16.20;83.80
15483;DHT22;7843;50.330;7.312;2022-07-06T00:17:57;16.10;84.00
15483;DHT22;7843;50.330;7.312;2022-07-06T00:20:24;16.10;83.80
15483;DHT22;7843;50.330;7.312;2022-07-06T00:22:51;16.00;84.10
15483;DHT22;7843;50.330;7.312;2022-07-06T00:25:17;15.90;84.10
15483;DHT22;7843;50.330;7.312;2022-07-06T00:27:44;16.00;84.40
15483;DHT22;7843;50.330;7.312;2022-07-06T00:30:11;15.80;84.60
15483;DHT22;7843;50.330;7.312;2022-07-06T00:32:38;15.80;84.90
15483;DHT22;7843;50.330;7.312;2022-07-06T00:35:05;15.80;84.80
15483;DHT22;7843;50.330;7.312;2022-07-06T00:37:32;15.80;84.90
15483;DHT22;7843;50.330;7.312;2022-07-06T00:39:58;15.70;84.90
15483;DHT22;7843;50.330;7.312;2022-07-06T00:42:25;15.70;85.00
15483;DHT22;7843;50.330;7.312;2022-07-06T00:44:52;15.60;85.50
15483;DHT22;7843;50.330;7.312;2022-07-06T00:47:19;15.50;85.60
15483;DHT22;7843;50.330;7.312;2022-07-06T00:49:45;15.50;85.60
15483;DHT22;7843;50.330;7.312;2022-07-06T00:52:31;15.40;86.20
15483;DHT22;7843;50.330;7.312;2022-07-06T00:54:58;15.40;86.30
15483;DHT22;7843;50.330;7.312;2022-07-06T00:57:25;15.30;86.50
15483;DHT22;7843;50.330;7.312;2022-07-06T00:59:51;15.30;86.70
15483;DHT22;7843;50.330;7.312;2022-07-06T01:02:18;15.30;86.50
15483;DHT22;7843;50.330;7.312;2022-07-06T01:04:45;15.30;86.80
15483;DHT22;7843;50.330;7.312;2022-07-06T01:07:12;15.30;86.50
15483;DHT22;7843;50.330;7.312;2022-07-06T01:09:39;15.30;86.20
15483;DHT22;7843;50.330;7.312;2022-07-06T01:12:06;15.20;86.80
15483;DHT22;7843;50.330;7.312;2022-07-06T01:14:33;15.20;86.50
15483;DHT22;7843;50.330;7.312;2022-07-06T01:17:00;15.10;86.60
15483;DHT22;7843;50.330;7.312;2022-07-06T01:19:27;15.10;86.60
15483;DHT22;7843;50.330;7.312;2022-07-06T01:21:54;15.00;87.00
15483;DHT22;7843;50.330;7.312;2022-07-06T01:24:20;14.90;86.30
15483;DHT22;7843;50.330;7.312;2022-07-06T01:26:47;14.90;86.40
15483;DHT22;7843;50.330;7.312;2022-07-06T01:29:14;15.00;86.30
15483;DHT22;7843;50.330;7.312;2022-07-06T01:31:50;15.00;86.20
15483;DHT22;7843;50.330;7.312;2022-07-06T01:34:18;14.90;86.20
15483;DHT22;7843;50.330;7.312;2022-07-06T01:36:47;14.80;86.50
15483;DHT22;7843;50.330;7.312;2022-07-06T01:39:14;14.70;86.80
15483;DHT22;7843;50.330;7.312;2022-07-06T01:41:41;14.60;87.10
15483;DHT22;7843;50.330;7.312;2022-07-06T01:44:08;14.50;87.30
15483;DHT22;7843;50.330;7.312;2022-07-06T01:46:34;14.50;87.30
15483;DHT22;7843;50.330;7.312;2022-07-06T01:49:05;14.50;87.80
15483;DHT22;7843;50.330;7.312;2022-07-06T01:51:32;14.40;87.70
15483;DHT22;7843;50.330;7.312;2022-07-06T01:53:59;14.40;87.60
15483;DHT22;7843;50.330;7.312;2022-07-06T01:56:25;14.40;87.30
15483;DHT22;7843;50.330;7.312;2022-07-06T01:58:52;14.40;87.20
15483;DHT22;7843;50.330;7.312;2022-07-06T02:01:19;14.50;86.80
15483;DHT22;7843;50.330;7.312;2022-07-06T02:03:47;14.40;86.40
15483;DHT22;7843;50.330;7.312;2022-07-06T02:06:14;14.40;86.00
15483;DHT22;7843;50.330;7.312;2022-07-06T02:08:41;14.40;85.70
15483;DHT22;7843;50.330;7.312;2022-07-06T02:11:09;14.50;85.70
15483;DHT22;7843;50.330;7.312;2022-07-06T02:13:36;14.50;85.40
15483;DHT22;7843;50.330;7.312;2022-07-06T02:16:03;14.50;85.10
15483;DHT22;7843;50.330;7.312;2022-07-06T02:18:31;14.30;84.80
15483;DHT22;7843;50.330;7.312;2022-07-06T02:20:57;14.20;85.30
15483;DHT22;7843;50.330;7.312;2022-07-06T02:23:24;14.20;85.50
15483;DHT22;7843;50.330;7.312;2022-07-06T02:25:52;14.10;85.30
15483;DHT22;7843;50.330;7.312;2022-07-06T02:28:19;14.10;85.50
15483;DHT22;7843;50.330;7.312;2022-07-06T02:30:46;14.00;85.40
15483;DHT22;7843;50.330;7.312;2022-07-06T02:33:15;14.00;85.40
15483;DHT22;7843;50.330;7.312;2022-07-06T02:35:41;14.00;85.20
15483;DHT22;7843;50.330;7.312;2022-07-06T02:38:09;13.90;85.10
15483;DHT22;7843;50.330;7.312;2022-07-06T02:40:37;13.90;84.80
15483;DHT22;7843;50.330;7.312;2022-07-06T02:43:04;13.80;85.10
15483;DHT22;7843;50.330;7.312;2022-07-06T02:45:32;13.60;85.60
15483;DHT22;7843;50.330;7.312;2022-07-06T02:47:58;13.60;85.60
15483;DHT22;7843;50.330;7.312;2022-07-06T02:50:25;13.60;85.30
15483;DHT22;7843;50.330;7.312;2022-07-06T02:52:52;13.60;85.10
15483;DHT22;7843;50.330;7.312;2022-07-06T02:55:19;13.70;85.20
15483;DHT22;7843;50.330;7.312;2022-07-06T02:57:46;13.60;85.10
15483;DHT22;7843;50.330;7.312;2022-07-06T03:00:13;13.60;85.00
15483;DHT22;7843;50.330;7.312;2022-07-06T03:02:40;13.60;84.70
15483;DHT22;7843;50.330;7.312;2022-07-06T03:05:07;13.60;85.10
15483;DHT22;7843;50.330;7.312;2022-07-06T03:07:34;13.50;85.40
15483;DHT22;7843;50.330;7.312;2022-07-06T03:10:00;13.40;85.60
15483;DHT22;7843;50.330;7.312;2022-07-06T03:12:27;13.20;85.90
15483;DHT22;7843;50.330;7.312;2022-07-06T03:14:54;13.20;86.20
15483;DHT22;7843;50.330;7.312;2022-07-06T03:17:20;13.10;86.40
15483;DHT22;7843;50.330;7.312;2022-07-06T03:19:48;13.00;86.90
15483;DHT22;7843;50.330;7.312;2022-07-06T03:22:14;13.00;86.90
15483;DHT22;7843;50.330;7.312;2022-07-06T03:24:41;13.00;87.10
15483;DHT22;7843;50.330;7.312;2022-07-06T03:27:08;13.00;87.00
15483;DHT22;7843;50.330;7.312;2022-07-06T03:29:35;13.10;86.90
15483;DHT22;7843;50.330;7.312;2022-07-06T03:32:01;13.10;86.90
15483;DHT22;7843;50.330;7.312;2022-07-06T03:34:28;13.20;86.70
15483;DHT22;7843;50.330;7.312;2022-07-06T03:36:55;13.20;86.60
15483;DHT22;7843;50.330;7.312;2022-07-06T03:39:22;13.10;86.60
15483;DHT22;7843;50.330;7.312;2022-07-06T03:41:48;13.10;86.90
15483;DHT22;7843;50.330;7.312;2022-07-06T03:44:15;13.10;86.70
15483;DHT22;7843;50.330;7.312;2022-07-06T03:46:42;13.10;87.20
15483;DHT22;7843;50.330;7.312;2022-07-06T03:49:09;13.10;87.20
15483;DHT22;7843;50.330;7.312;2022-07-06T03:51:36;13.10;87.50
15483;DHT22;7843;50.330;7.312;2022-07-06T03:54:02;13.20;87.60
15483;DHT22;7843;50.330;7.312;2022-07-06T03:56:29;13.20;87.50
15483;DHT22;7843;50.330;7.312;2022-07-06T03:58:58;13.20;87.60
15483;DHT22;7843;50.330;7.312;2022-07-06T04:01:25;13.20;87.90
15483;DHT22;7843;50.330;7.312;2022-07-06T04:03:53;13.20;87.80
15483;DHT22;7843;50.330;7.312;2022-07-06T04:06:20;13.20;87.90
15483;DHT22;7843;50.330;7.312;2022-07-06T04:08:47;13.10;88.30
15483;DHT22;7843;50.330;7.312;2022-07-06T04:11:13;13.00;88.60
15483;DHT22;7843;50.330;7.312;2022-07-06T04:13:40;13.00;89.40
15483;DHT22;7843;50.330;7.312;2022-07-06T04:16:07;13.00;89.80
15483;DHT22;7843;50.330;7.312;2022-07-06T04:18:34;13.00;90.10
15483;DHT22;7843;50.330;7.312;2022-07-06T04:21:01;13.00;90.20
15483;DHT22;7843;50.330;7.312;2022-07-06T04:23:29;13.00;90.20
15483;DHT22;7843;50.330;7.312;2022-07-06T04:25:55;13.10;90.60
15483;DHT22;7843;50.330;7.312;2022-07-06T04:28:22;13.10;90.80
15483;DHT22;7843;50.330;7.312;2022-07-06T04:30:49;13.20;90.90
15483;DHT22;7843;50.330;7.312;2022-07-06T04:33:16;13.10;90.60
15483;DHT22;7843;50.330;7.312;2022-07-06T04:35:42;13.20;90.90
15483;DHT22;7843;50.330;7.312;2022-07-06T04:38:09;13.30;90.50
15483;DHT22;7843;50.330;7.312;2022-07-06T04:40:36;13.30;90.80
15483;DHT22;7843;50.330;7.312;2022-07-06T04:43:03;13.40;90.40
15483;DHT22;7843;50.330;7.312;2022-07-06T04:45:29;13.50;90.20
15483;DHT22;7843;50.330;7.312;2022-07-06T04:47:56;13.50;90.30
15483;DHT22;7843;50.330;7.312;2022-07-06T04:50:23;13.70;90.50
15483;DHT22;7843;50.330;7.312;2022-07-06T04:52:49;13.90;90.40
15483;DHT22;7843;50.330;7.312;2022-07-06T04:55:16;14.00;89.80
15483;DHT22;7843;50.330;7.312;2022-07-06T04:57:43;14.10;89.70
15483;DHT22;7843;50.330;7.312;2022-07-06T05:00:10;14.20;88.90
15483;DHT22;7843;50.330;7.312;2022-07-06T05:02:37;14.40;88.60
15483;DHT22;7843;50.330;7.312;2022-07-06T05:05:04;14.50;88.00
15483;DHT22;7843;50.330;7.312;2022-07-06T05:07:31;14.50;88.20
15483;DHT22;7843;50.330;7.312;2022-07-06T05:10:00;14.50;87.60
15483;DHT22;7843;50.330;7.312;2022-07-06T05:12:27;14.50;87.90
15483;DHT22;7843;50.330;7.312;2022-07-06T05:14:53;14.50;87.80
15483;DHT22;7843;50.330;7.312;2022-07-06T05:17:20;14.40;88.10
15483;DHT22;7843;50.330;7.312;2022-07-06T05:19:49;14.40;88.40
15483;DHT22;7843;50.330;7.312;2022-07-06T05:22:16;14.30;88.60
15483;DHT22;7843;50.330;7.312;2022-07-06T05:24:43;14.50;88.30
15483;DHT22;7843;50.330;7.312;2022-07-06T05:27:10;14.60;88.00
15483;DHT22;7843;50.330;7.312;2022-07-06T05:29:36;14.70;87.90
15483;DHT22;7843;50.330;7.312;2022-07-06T05:32:03;14.70;87.70
15483;DHT22;7843;50.330;7.312;2022-07-06T05:34:34;14.70;88.00
15483;DHT22;7843;50.330;7.312;2022-07-06T05:37:03;14.70;88.70
15483;DHT22;7843;50.330;7.312;2022-07-06T05:55:18;15.00;87.30
15483;DHT22;7843;50.330;7.312;2022-07-06T05:57:45;15.10;86.90
15483;DHT22;7843;50.330;7.312;2022-07-06T06:00:13;15.10;87.40
15483;DHT22;7843;50.330;7.312;2022-07-06T06:02:40;15.10;86.90
15483;DHT22;7843;50.330;7.312;2022-07-06T06:05:09;15.20;86.80
15483;DHT22;7843;50.330;7.312;2022-07-06T06:07:37;15.30;86.30
15483;DHT22;7843;50.330;7.312;2022-07-06T06:10:06;15.30;86.10
15483;DHT22;7843;50.330;7.312;2022-07-06T06:12:33;15.30;86.00
15483;DHT22;7843;50.330;7.312;2022-07-06T06:15:00;15.40;86.10
15483;DHT22;7843;50.330;7.312;2022-07-06T06:17:27;15.40;86.40
15483;DHT22;7843;50.330;7.312;2022-07-06T06:19:54;15.40;86.60
15483;DHT22;7843;50.330;7.312;2022-07-06T06:22:23;15.50;86.30
15483;DHT22;7843;50.330;7.312;2022-07-06T06:24:50;15.60;85.50
15483;DHT22;7843;50.330;7.312;2022-07-06T06:27:17;15.60;85.50
15483;DHT22;7843;50.330;7.312;2022-07-06T06:29:44;15.60;85.50
15483;DHT22;7843;50.330;7.312;2022-07-06T06:32:13;15.60;85.50
15483;DHT22;7843;50.330;7.312;2022-07-06T06:34:40;15.60;85.60
15483;DHT22;7843;50.330;7.312;2022-07-06T06:37:07;15.60;85.90
15483;DHT22;7843;50.330;7.312;2022-07-06T06:39:34;15.60;85.40
15483;DHT22;7843;50.330;7.312;2022-07-06T06:42:00;15.60;85.60
15483;DHT22;7843;50.330;7.312;2022-07-06T06:44:27;15.70;85.60
15483;DHT22;7843;50.330;7.312;2022-07-06T06:46:54;15.80;85.70
15483;DHT22;7843;50.330;7.312;2022-07-06T06:49:20;15.80;85.60
15483;DHT22;7843;50.330;7.312;2022-07-06T06:51:47;15.90;85.40
15483;DHT22;7843;50.330;7.312;2022-07-06T06:54:14;15.90;85.00
15483;DHT22;7843;50.330;7.312;2022-07-06T06:56:41;15.90;84.90
15483;DHT22;7843;50.330;7.312;2022-07-06T06:59:11;16.00;85.10
15483;DHT22;7843;50.330;7.312;2022-07-06T07:01:41;16.10;85.40
15483;DHT22;7843;50.330;7.312;2022-07-06T07:04:08;16.20;85.30
15483;DHT22;7843;50.330;7.312;2022-07-06T07:06:35;16.30;84.00
15483;DHT22;7843;50.330;7.312;2022-07-06T07:09:02;16.30;83.70
15483;DHT22;7843;50.330;7.312;2022-07-06T07:11:29;16.40;84.00
15483;DHT22;7843;50.330;7.312;2022-07-06T07:13:56;16.50;83.00
15483;DHT22;7843;50.330;7.312;2022-07-06T07:16:22;16.50;83.70
15483;DHT22;7843;50.330;7.312;2022-07-06T07:18:51;16.50;82.90
15483;DHT22;7843;50.330;7.312;2022-07-06T07:21:18;16.60;83.10
15483;DHT22;7843;50.330;7.312;2022-07-06T07:23:44;16.60;83.20
15483;DHT22;7843;50.330;7.312;2022-07-06T07:26:11;16.70;83.10
15483;DHT22;7843;50.330;7.312;2022-07-06T07:28:38;16.80;82.10
15483;DHT22;7843;50.330;7.312;2022-07-06T07:31:05;16.90;82.20
15483;DHT22;7843;50.330;7.312;2022-07-06T07:33:32;17.10;81.90
15483;DHT22;7843;50.330;7.312;2022-07-06T07:35:59;17.10;81.00
15483;DHT22;7843;50.330;7.312;2022-07-06T07:38:26;17.10;80.90
15483;DHT22;7843;50.330;7.312;2022-07-06T07:40:53;17.20;80.30
15483;DHT22;7843;50.330;7.312;2022-07-06T07:43:21;17.40;80.00
15483;DHT22;7843;50.330;7.312;2022-07-06T07:45:48;17.40;80.20
15483;DHT22;7843;50.330;7.312;2022-07-06T07:48:14;17.50;79.20
15483;DHT22;7843;50.330;7.312;2022-07-06T07:50:42;17.30;77.60
15483;DHT22;7843;50.330;7.312;2022-07-06T07:53:08;17.30;78.40
15483;DHT22;7843;50.330;7.312;2022-07-06T07:55:35;17.30;77.80
15483;DHT22;7843;50.330;7.312;2022-07-06T07:58:06;17.30;78.40
15483;DHT22;7843;50.330;7.312;2022-07-06T08:00:33;17.40;79.30
15483;DHT22;7843;50.330;7.312;2022-07-06T08:03:00;17.40;79.80
15483;DHT22;7843;50.330;7.312;2022-07-06T08:05:27;17.50;78.90
15483;DHT22;7843;50.330;7.312;2022-07-06T08:07:53;17.50;78.70
15483;DHT22;7843;50.330;7.312;2022-07-06T08:10:20;17.50;78.70
15483;DHT22;7843;50.330;7.312;2022-07-06T08:12:47;17.70;79.20
15483;DHT22;7843;50.330;7.312;2022-07-06T08:15:14;17.70;78.10
15483;DHT22;7843;50.330;7.312;2022-07-06T08:17:41;17.60;77.60
15483;DHT22;7843;50.330;7.312;2022-07-06T08:20:08;17.60;78.40
15483;DHT22;7843;50.330;7.312;2022-07-06T08:22:36;17.60;77.60
15483;DHT22;7843;50.330;7.312;2022-07-06T08:25:04;17.60;76.50
15483;DHT22;7843;50.330;7.312;2022-07-06T08:27:31;17.70;76.30
15483;DHT22;7843;50.330;7.312;2022-07-06T08:29:58;17.50;77.00
15483;DHT22;7843;50.330;7.312;2022-07-06T08:32:26;17.60;77.20
15483;DHT22;7843;50.330;7.312;2022-07-06T08:35:07;17.60;77.30
15483;DHT22;7843;50.330;7.312;2022-07-06T08:37:34;17.80;77.50
15483;DHT22;7843;50.330;7.312;2022-07-06T08:40:01;18.00;77.40
15483;DHT22;7843;50.330;7.312;2022-07-06T08:42:32;18.20;76.50
15483;DHT22;7843;50.330;7.312;2022-07-06T08:45:00;18.40;76.50
15483;DHT22;7843;50.330;7.312;2022-07-06T08:47:28;18.70;75.30
15483;DHT22;7843;50.330;7.312;2022-07-06T08:49:56;19.00;75.20
15483;DHT22;7843;50.330;7.312;2022-07-06T08:52:24;19.30;75.40
15483;DHT22;7843;50.330;7.312;2022-07-06T08:54:51;19.40;71.90
15483;DHT22;7843;50.330;7.312;2022-07-06T08:57:18;19.50;71.90
15483;DHT22;7843;50.330;7.312;2022-07-06T08:59:45;19.60;72.30
15483;DHT22;7843;50.330;7.312;2022-07-06T09:02:13;19.80;70.90
15483;DHT22;7843;50.330;7.312;2022-07-06T09:04:42;19.90;69.30
15483;DHT22;7843;50.330;7.312;2022-07-06T09:07:09;20.00;70.10
15483;DHT22;7843;50.330;7.312;2022-07-06T09:09:37;20.10;70.40
15483;DHT22;7843;50.330;7.312;2022-07-06T09:12:10;19.90;68.60
15483;DHT22;7843;50.330;7.312;2022-07-06T09:14:38;19.60;68.70
15483;DHT22;7843;50.330;7.312;2022-07-06T09:17:06;19.20;70.40
15483;DHT22;7843;50.330;7.312;2022-07-06T09:19:35;19.00;70.30
15483;DHT22;7843;50.330;7.312;2022-07-06T09:22:03;18.90;71.70
15483;DHT22;7843;50.330;7.312;2022-07-06T09:24:30;19.00;72.10
15483;DHT22;7843;50.330;7.312;2022-07-06T09:26:59;19.00;71.80
15483;DHT22;7843;50.330;7.312;2022-07-06T09:29:28;19.00;71.50
15483;DHT22;7843;50.330;7.312;2022-07-06T09:32:00;19.00;72.20
15483;DHT22;7843;50.330;7.312;2022-07-06T09:34:41;19.10;71.10
15483;DHT22;7843;50.330;7.312;2022-07-06T09:37:08;19.10;72.00
15483;DHT22;7843;50.330;7.312;2022-07-06T09:39:35;19.20;72.10
15483;DHT22;7843;50.330;7.312;2022-07-06T09:42:04;19.30;70.00
15483;DHT22;7843;50.330;7.312;2022-07-06T09:44:33;19.40;69.90
15483;DHT22;7843;50.330;7.312;2022-07-06T09:47:02;19.50;70.20
15483;DHT22;7843;50.330;7.312;2022-07-06T09:49:29;19.60;70.20
15483;DHT22;7843;50.330;7.312;2022-07-06T09:51:58;19.50;70.10
15483;DHT22;7843;50.330;7.312;2022-07-06T09:54:25;19.40;71.20
15483;DHT22;7843;50.330;7.312;2022-07-06T09:56:52;19.30;70.90
15483;DHT22;7843;50.330;7.312;2022-07-06T09:59:21;19.30;70.90
15483;DHT22;7843;50.330;7.312;2022-07-06T10:01:52;19.60;70.30
15483;DHT22;7843;50.330;7.312;2022-07-06T10:04:21;20.00;68.60
15483;DHT22;7843;50.330;7.312;2022-07-06T10:06:48;20.10;67.50
15483;DHT22;7843;50.330;7.312;2022-07-06T10:09:16;20.00;67.70
15483;DHT22;7843;50.330;7.312;2022-07-06T10:11:48;19.90;68.20
15483;DHT22;7843;50.330;7.312;2022-07-06T10:14:19;19.70;69.00
15483;DHT22;7843;50.330;7.312;2022-07-06T10:16:46;19.60;69.40
15483;DHT22;7843;50.330;7.312;2022-07-06T10:19:15;19.50;70.00
15483;DHT22;7843;50.330;7.312;2022-07-06T10:21:42;19.40;70.00
15483;DHT22;7843;50.330;7.312;2022-07-06T10:24:10;19.50;70.90
15483;DHT22;7843;50.330;7.312;2022-07-06T10:26:39;19.40;70.00
15483;DHT22;7843;50.330;7.312;2022-07-06T10:29:06;19.50;70.90
15483;DHT22;7843;50.330;7.312;2022-07-06T10:31:36;19.70;70.70
15483;DHT22;7843;50.330;7.312;2022-07-06T10:34:06;19.90;69.20
15483;DHT22;7843;50.330;7.312;2022-07-06T10:36:44;20.10;69.20
15483;DHT22;7843;50.330;7.312;2022-07-06T10:39:14;20.20;67.40
15483;DHT22;7843;50.330;7.312;2022-07-06T10:41:59;20.20;68.10
15483;DHT22;7843;50.330;7.312;2022-07-06T10:44:27;20.20;68.60
15483;DHT22;7843;50.330;7.312;2022-07-06T10:46:58;20.10;68.10
15483;DHT22;7843;50.330;7.312;2022-07-06T10:49:26;20.00;69.00
15483;DHT22;7843;50.330;7.312;2022-07-06T10:52:16;19.80;70.10
15483;DHT22;7843;50.330;7.312;2022-07-06T10:54:43;19.70;69.40
15483;DHT22;7843;50.330;7.312;2022-07-06T10:57:11;19.70;68.30
15483;DHT22;7843;50.330;7.312;2022-07-06T10:59:41;19.70;69.30
15483;DHT22;7843;50.330;7.312;2022-07-06T11:02:26;19.80;68.60
15483;DHT22;7843;50.330;7.312;2022-07-06T11:04:53;19.90;69.70
15483;DHT22;7843;50.330;7.312;2022-07-06T11:07:20;20.10;69.20
15483;DHT22;7843;50.330;7.312;2022-07-06T11:09:57;20.30;67.90
15483;DHT22;7843;50.330;7.312;2022-07-06T11:12:24;20.30;66.30
15483;DHT22;7843;50.330;7.312;2022-07-06T11:14:52;20.30;65.00
15483;DHT22;7843;50.330;7.312;2022-07-06T11:17:20;20.20;66.70
15483;DHT22;7843;50.330;7.312;2022-07-06T11:19:54;20.10;67.60
15483;DHT22;7843;50.330;7.312;2022-07-06T11:22:22;20.10;68.20
15483;DHT22;7843;50.330;7.312;2022-07-06T11:24:51;20.20;66.90
15483;DHT22;7843;50.330;7.312;2022-07-06T11:27:19;20.30;67.80
15483;DHT22;7843;50.330;7.312;2022-07-06T11:29:45;20.20;67.40
15483;DHT22;7843;50.330;7.312;2022-07-06T11:32:12;20.30;67.60
15483;DHT22;7843;50.330;7.312;2022-07-06T11:34:43;20.40;67.50
15483;DHT22;7843;50.330;7.312;2022-07-06T11:37:12;20.60;66.90
15483;DHT22;7843;50.330;7.312;2022-07-06T11:39:41;21.00;67.10
15483;DHT22;7843;50.330;7.312;2022-07-06T11:42:10;21.10;66.70
15483;DHT22;7843;50.330;7.312;2022-07-06T11:44:39;21.30;66.10
15483;DHT22;7843;50.330;7.312;2022-07-06T11:47:07;21.10;66.20
15483;DHT22;7843;50.330;7.312;2022-07-06T11:49:35;21.30;67.70
15483;DHT22;7843;50.330;7.312;2022-07-06T11:52:10;21.70;66.30
15483;DHT22;7843;50.330;7.312;2022-07-06T11:54:38;21.60;65.80
15483;DHT22;7843;50.330;7.312;2022-07-06T11:57:08;22.10;65.10
15483;DHT22;7843;50.330;7.312;2022-07-06T11:59:36;22.40;64.00
15483;DHT22;7843;50.330;7.312;2022-07-06T12:02:09;22.50;64.00
15483;DHT22;7843;50.330;7.312;2022-07-06T12:04:42;22.60;62.80
15483;DHT22;7843;50.330;7.312;2022-07-06T12:07:13;22.50;62.60
15483;DHT22;7843;50.330;7.312;2022-07-06T12:09:43;22.60;62.50
15483;DHT22;7843;50.330;7.312;2022-07-06T12:12:11;23.00;62.60
15483;DHT22;7843;50.330;7.312;2022-07-06T12:14:39;23.60;61.40
15483;DHT22;7843;50.330;7.312;2022-07-06T12:17:13;23.90;61.20
15483;DHT22;7843;50.330;7.312;2022-07-06T12:19:41;24.30;59.00
15483;DHT22;7843;50.330;7.312;2022-07-06T12:22:09;24.20;58.60
15483;DHT22;7843;50.330;7.312;2022-07-06T12:24:37;23.90;60.20
15483;DHT22;7843;50.330;7.312;2022-07-06T12:27:15;24.20;60.30
15483;DHT22;7843;50.330;7.312;2022-07-06T12:29:47;24.10;58.70
15483;DHT22;7843;50.330;7.312;2022-07-06T12:34:42;23.70;59.80
15483;DHT22;7843;50.330;7.312;2022-07-06T12:37:11;23.50;59.20
15483;DHT22;7843;50.330;7.312;2022-07-06T12:39:43;23.20;61.10
15483;DHT22;7843;50.330;7.312;2022-07-06T12:42:12;23.00;61.00
15483;DHT22;7843;50.330;7.312;2022-07-06T12:44:51;22.80;60.80
15483;DHT22;7843;50.330;7.312;2022-07-06T12:47:20;22.80;60.40
15483;DHT22;7843;50.330;7.312;2022-07-06T12:49:48;23.00;60.30
15483;DHT22;7843;50.330;7.312;2022-07-06T12:52:16;23.50;61.50
15483;DHT22;7843;50.330;7.312;2022-07-06T12:54:48;24.00;59.70
15483;DHT22;7843;50.330;7.312;2022-07-06T12:57:23;25.00;59.10
15483;DHT22;7843;50.330;7.312;2022-07-06T13:02:31;25.50;57.50
15483;DHT22;7843;50.330;7.312;2022-07-06T13:05:16;24.70;56.00
15483;DHT22;7843;50.330;7.312;2022-07-06T13:07:47;24.00;58.80
15483;DHT22;7843;50.330;7.312;2022-07-06T13:10:15;23.50;59.80
15483;DHT22;7843;50.330;7.312;2022-07-06T13:12:43;23.10;61.00
15483;DHT22;7843;50.330;7.312;2022-07-06T13:15:10;22.70;60.50
15483;DHT22;7843;50.330;7.312;2022-07-06T13:17:37;22.50;62.50
15483;DHT22;7843;50.330;7.312;2022-07-06T13:20:06;22.70;61.30
15483;DHT22;7843;50.330;7.312;2022-07-06T13:22:34;23.10;61.30
15483;DHT22;7843;50.330;7.312;2022-07-06T13:25:02;23.50;60.30
15483;DHT22;7843;50.330;7.312;2022-07-06T13:27:29;23.80;60.90
15483;DHT22;7843;50.330;7.312;2022-07-06T13:29:56;24.20;60.70
15483;DHT22;7843;50.330;7.312;2022-07-06T13:32:23;24.40;58.30
15483;DHT22;7843;50.330;7.312;2022-07-06T13:34:49;24.50;58.40
15483;DHT22;7843;50.330;7.312;2022-07-06T13:37:19;24.50;58.60
15483;DHT22;7843;50.330;7.312;2022-07-06T13:39:46;24.40;58.20
15483;DHT22;7843;50.330;7.312;2022-07-06T13:42:13;24.10;58.00
15483;DHT22;7843;50.330;7.312;2022-07-06T13:44:40;23.70;59.00
15483;DHT22;7843;50.330;7.312;2022-07-06T13:47:06;23.40;59.70
15483;DHT22;7843;50.330;7.312;2022-07-06T13:49:33;23.10;59.80
15483;DHT22;7843;50.330;7.312;2022-07-06T13:52:00;22.90;60.10
15483;DHT22;7843;50.330;7.312;2022-07-06T13:54:31;22.90;60.40
15483;DHT22;7843;50.330;7.312;2022-07-06T13:56:58;22.80;60.50
15483;DHT22;7843;50.330;7.312;2022-07-06T13:59:24;22.80;60.20
15483;DHT22;7843;50.330;7.312;2022-07-06T14:01:51;22.80;60.90
15483;DHT22;7843;50.330;7.312;2022-07-06T14:04:18;23.00;61.00
15483;DHT22;7843;50.330;7.312;2022-07-06T14:06:45;23.30;61.90
15483;DHT22;7843;50.330;7.312;2022-07-06T14:09:11;23.80;59.30
15483;DHT22;7843;50.330;7.312;2022-07-06T14:11:38;24.00;59.90
15483;DHT22;7843;50.330;7.312;2022-07-06T14:14:05;24.10;60.30
15483;DHT22;7843;50.330;7.312;2022-07-06T14:16:35;24.20;58.50
15483;DHT22;7843;50.330;7.312;2022-07-06T14:19:02;24.10;59.30
15483;DHT22;7843;50.330;7.312;2022-07-06T14:21:29;24.00;58.80
15483;DHT22;7843;50.330;7.312;2022-07-06T14:23:56;23.90;58.90
15483;DHT22;7843;50.330;7.312;2022-07-06T14:26:23;23.80;60.10
15483;DHT22;7843;50.330;7.312;2022-07-06T14:28:49;23.80;59.10
15483;DHT22;7843;50.330;7.312;2022-07-06T14:31:16;23.50;58.00
15483;DHT22;7843;50.330;7.312;2022-07-06T14:33:46;23.40;58.60
15483;DHT22;7843;50.330;7.312;2022-07-06T14:36:13;23.30;59.40
15483;DHT22;7843;50.330;7.312;2022-07-06T14:38:39;23.20;60.70
15483;DHT22;7843;50.330;7.312;2022-07-06T14:41:06;23.30;59.90
15483;DHT22;7843;50.330;7.312;2022-07-06T14:43:33;23.70;59.20
15483;DHT22;7843;50.330;7.312;2022-07-06T14:46:00;24.10;57.80
15483;DHT22;7843;50.330;7.312;2022-07-06T14:48:27;24.30;58.20
15483;DHT22;7843;50.330;7.312;2022-07-06T14:50:53;24.60;57.80
15483;DHT22;7843;50.330;7.312;2022-07-06T14:53:20;24.60;57.70
15483;DHT22;7843;50.330;7.312;2022-07-06T14:55:47;24.60;58.80
15483;DHT22;7843;50.330;7.312;2022-07-06T14:58:14;24.90;57.90
15483;DHT22;7843;50.330;7.312;2022-07-06T15:00:47;25.00;57.80
15483;DHT22;7843;50.330;7.312;2022-07-06T15:03:15;24.70;58.30
15483;DHT22;7843;50.330;7.312;2022-07-06T15:05:42;24.50;58.20
15483;DHT22;7843;50.330;7.312;2022-07-06T15:08:13;24.40;57.70
15483;DHT22;7843;50.330;7.312;2022-07-06T15:10:42;24.60;59.00
15483;DHT22;7843;50.330;7.312;2022-07-06T15:13:09;24.70;57.40
15483;DHT22;7843;50.330;7.312;2022-07-06T15:15:36;25.00;57.30
15483;DHT22;7843;50.330;7.312;2022-07-06T15:18:21;25.40;56.00
15483;DHT22;7843;50.330;7.312;2022-07-06T15:20:48;25.10;56.80
15483;DHT22;7843;50.330;7.312;2022-07-06T15:23:15;24.90;57.10
15483;DHT22;7843;50.330;7.312;2022-07-06T15:25:41;24.90;57.10
15483;DHT22;7843;50.330;7.312;2022-07-06T15:28:08;24.70;57.00
15483;DHT22;7843;50.330;7.312;2022-07-06T15:30:35;24.50;58.80
15483;DHT22;7843;50.330;7.312;2022-07-06T15:33:03;24.20;58.70
15483;DHT22;7843;50.330;7.312;2022-07-06T15:35:30;24.10;59.00
15483;DHT22;7843;50.330;7.312;2022-07-06T15:37:56;24.40;58.70
15483;DHT22;7843;50.330;7.312;2022-07-06T15:40:23;24.90;57.80
15483;DHT22;7843;50.330;7.312;2022-07-06T15:42:51;25.40;57.00
15483;DHT22;7843;50.330;7.312;2022-07-06T15:45:18;25.60;55.80
15483;DHT22;7843;50.330;7.312;2022-07-06T15:47:47;25.70;55.20
15483;DHT22;7843;50.330;7.312;2022-07-06T15:50:16;25.60;57.00
15483;DHT22;7843;50.330;7.312;2022-07-06T15:52:44;25.70;55.50
15483;DHT22;7843;50.330;7.312;2022-07-06T15:55:11;25.40;56.10
15483;DHT22;7843;50.330;7.312;2022-07-06T15:57:38;25.20;55.80
15483;DHT22;7843;50.330;7.312;2022-07-06T16:00:06;25.20;55.90
15483;DHT22;7843;50.330;7.312;2022-07-06T16:02:32;25.20;55.90
15483;DHT22;7843;50.330;7.312;2022-07-06T16:04:59;25.00;56.90
15483;DHT22;7843;50.330;7.312;2022-07-06T16:07:26;24.60;57.60
15483;DHT22;7843;50.330;7.312;2022-07-06T16:10:11;24.60;57.80